Time;durP1;ratioP1;P1;durP2;ratioP2;P2;SDS_P1;SDS_P2;PMS_P1;PMS_P2;Temp;Humidity;BMP_temperature;BMP_pressure;BME280_temperature;BME280_humidity;BME280_pressure;Samples;Min_cycle;Max_cycle;Signal;HPM_P1;HPM_P2
2021/05/28 01:24:34;;;;;;;7.53;6.80;;;10.70;99.90;;;11.38;100.00;100624.53;4791236;29;20590;-60
2021/05/28 01:31:59;;;;;;;10.63;7.03;;;10.60;99.90;;;11.39;100.00;100639.59;4799105;29;20640;-60
2021/05/28 04:52:18;;;;;;;12.90;11.20;;;11.40;99.90;;;11.92;100.00;100730.69;4825014;28;20243;-59
2021/05/28 07:00:39;;;;;;;2.40;2.20;;;13.00;99.90;;;13.36;100.00;100806.00;4797084;29;20657;-58
2021/05/28 08:09:20;;;;;;;5.27;1.93;;;13.80;99.90;;;13.62;100.00;100840.84;4942798;28;20490;-59
2021/05/28 08:12:33;;;;;;;2.43;1.73;;;13.80;99.90;;;14.00;100.00;100834.88;4943783;28;20232;-59
2021/05/28 08:15:44;;;;;;;4.20;2.00;;;14.00;99.90;;;14.64;100.00;100826.97;4984408;28;20223;-58
2021/05/28 08:54:57;;;;;;;1.92;1.23;;;16.70;99.90;;;14.92;100.00;100824.72;4921108;28;20615;-59
2021/05/28 08:58:45;;;;;;;3.38;1.15;;;16.50;99.90;;;15.03;100.00;100829.72;4958671;28;20789;-59
2021/05/28 09:17:34;;;;;;;1.17;0.93;;;16.80;99.90;;;15.52;100.00;100822.25;4922307;28;20580;-58
2021/05/28 10:20:49;;;;;;;1.15;0.45;;;17.60;92.40;;;14.33;100.00;100857.25;4949646;28;20467;-58
2021/05/28 10:43:48;;;;;;;0.60;0.50;;;15.80;99.70;;;16.26;100.00;100855.00;4915670;28;20224;-59
2021/05/28 13:40:34;;;;;;;0.98;0.80;;;16.80;97.80;;;17.05;100.00;100816.59;4899997;28;20229;-59
2021/05/28 13:43:48;;;;;;;0.85;0.70;;;17.10;96.80;;;17.16;100.00;100810.69;4985053;28;21079;-58
2021/05/28 15:27:16;;;;;;;3.70;0.90;;;16.60;95.90;;;15.64;100.00;100785.78;4948686;28;20228;-57
2021/05/28 15:29:43;;;;;;;6.57;1.60;;;16.20;97.10;;;15.62;100.00;100795.91;4995994;28;20619;-57
2021/05/28 15:32:09;;;;;;;5.07;2.08;;;16.10;99.90;;;15.42;100.00;100794.66;5026792;28;20333;-58
2021/05/28 15:34:36;;;;;;;4.18;1.77;;;15.90;99.90;;;14.78;100.00;100799.31;5020789;28;20361;-58
2021/05/28 15:37:03;;;;;;;6.10;1.90;;;15.40;99.90;;;14.30;100.00;100811.00;5011347;28;20253;-57
2021/05/28 15:39:29;;;;;;;10.73;2.58;;;14.90;99.90;;;13.69;100.00;100809.63;5004651;28;20742;-61
2021/05/28 15:41:56;;;;;;;2.13;1.80;;;14.40;99.90;;;13.47;100.00;100821.84;5009552;28;20237;-59
2021/05/28 15:44:23;;;;;;;3.67;1.73;;;13.90;99.90;;;13.25;100.00;100819.72;5014626;28;20505;-58
2021/05/28 15:46:50;;;;;;;8.20;2.43;;;13.50;99.90;;;13.43;100.00;100822.31;5020930;28;20530;-59
2021/05/28 15:49:16;;;;;;;21.13;3.93;;;13.30;99.90;;;13.80;100.00;100827.28;5021104;28;20226;-61
2021/05/28 15:51:42;;;;;;;4.03;3.13;;;13.10;99.90;;;13.22;100.00;100820.09;5006532;28;20481;-61
2021/05/28 15:54:09;;;;;;;3.57;3.00;;;13.10;99.90;;;13.47;100.00;100829.91;5006433;28;20262;-59
2021/05/28 15:56:35;;;;;;;6.70;3.40;;;13.00;99.90;;;13.42;100.00;100826.84;5013835;28;20647;-60
2021/05/28 15:59:02;;;;;;;3.77;2.40;;;13.10;99.90;;;13.34;100.00;100820.63;5008179;28;21006;-58
2021/05/28 16:01:30;;;;;;;4.13;2.50;;;13.10;99.90;;;13.55;100.00;100813.78;5017892;28;20549;-59
2021/05/28 16:03:56;;;;;;;3.23;2.13;;;13.00;99.90;;;13.86;100.00;100805.94;5003735;28;20507;-60
2021/05/28 16:06:23;;;;;;;4.17;2.37;;;13.00;99.90;;;14.07;100.00;100810.84;5004829;28;20313;-58
2021/05/28 16:08:49;;;;;;;2.27;1.90;;;13.10;99.90;;;13.96;100.00;100803.94;5001608;28;20969;-59
2021/05/28 16:11:16;;;;;;;3.37;2.03;;;13.20;99.90;;;13.96;100.00;100803.94;5004694;28;20718;-59
2021/05/28 16:13:42;;;;;;;3.83;2.07;;;13.20;99.90;;;13.91;100.00;100813.50;5006035;28;20352;-58
2021/05/28 16:16:10;;;;;;;2.20;1.97;;;13.20;99.90;;;14.10;100.00;100810.47;5007422;28;20664;-59
2021/05/28 16:18:37;;;;;;;2.67;1.67;;;13.30;99.90;;;14.06;100.00;100803.78;5009491;28;20218;-59
2021/05/28 16:21:04;;;;;;;3.27;1.90;;;13.40;99.90;;;14.10;100.00;100802.41;5005246;28;20218;-60
2021/05/28 16:23:30;;;;;;;2.20;1.50;;;13.40;99.90;;;14.24;100.00;100795.50;5005108;28;20520;-59
2021/05/28 16:25:58;;;;;;;2.43;1.77;;;13.40;99.90;;;14.52;100.00;100799.53;5012851;28;20246;-59
2021/05/28 16:28:24;;;;;;;2.40;1.77;;;13.40;99.90;;;14.42;100.00;100793.50;5006165;28;20849;-59
2021/05/28 16:30:51;;;;;;;1.80;1.70;;;13.50;99.90;;;14.16;100.00;100788.28;5006337;28;20621;-60
2021/05/28 16:33:19;;;;;;;2.03;1.67;;;13.50;99.90;;;14.27;100.00;100787.09;5005837;28;20545;-59
2021/05/28 16:35:48;;;;;;;2.77;1.60;;;13.50;99.90;;;14.13;100.00;100785.94;4998208;28;20522;-59
2021/05/28 16:38:15;;;;;;;3.50;1.90;;;13.50;99.90;;;14.14;100.00;100789.47;5007421;28;20230;-59
2021/05/28 16:40:42;;;;;;;1.40;1.30;;;13.40;99.90;;;14.14;100.00;100798.38;5005595;28;20415;-59
2021/05/28 16:43:10;;;;;;;2.10;1.90;;;13.40;99.90;;;14.36;100.00;100807.59;5005432;28;20550;-60
2021/05/28 16:45:37;;;;;;;3.27;1.77;;;13.40;99.90;;;14.37;100.00;100850.50;5005725;28;20616;-60
2021/05/28 16:48:05;;;;;;;2.87;1.70;;;13.40;99.90;;;13.61;100.00;100845.38;5005178;28;20238;-61
2021/05/28 16:50:53;;;;;;;5.23;2.17;;;13.50;99.90;;;13.02;100.00;100848.16;4983184;28;20329;-62
2021/05/28 16:53:19;;;;;;;5.37;1.97;;;13.40;99.90;;;12.09;100.00;100857.75;5004926;28;20537;-59
2021/05/28 16:55:45;;;;;;;3.60;2.17;;;13.00;99.90;;;11.65;100.00;100884.41;4987422;28;20507;-60
2021/05/28 16:58:12;;;;;;;10.67;2.60;;;12.50;99.90;;;11.35;100.00;100901.66;5012423;28;20996;-60
2021/05/28 17:00:38;;;;;;;2.67;2.30;;;11.90;99.90;;;11.33;100.00;100897.44;5006302;28;20308;-60
2021/05/28 17:03:05;;;;;;;3.87;2.40;;;11.50;99.90;;;11.33;100.00;100894.75;5005270;28;20244;-61
2021/05/28 17:05:33;;;;;;;7.43;2.67;;;11.20;99.90;;;11.30;100.00;100890.53;5005191;28;20219;-60
2021/05/28 17:07:59;;;;;;;3.33;2.40;;;11.10;99.90;;;11.30;100.00;100881.66;5006424;28;20222;-60
2021/05/28 17:10:28;;;;;;;3.80;2.70;;;10.90;99.90;;;11.34;100.00;100885.72;5005882;28;20611;-60
2021/05/28 17:12:54;;;;;;;3.33;2.57;;;10.80;99.90;;;11.44;100.00;100889.19;5005289;28;20473;-59
2021/05/28 17:15:21;;;;;;;4.00;3.33;;;10.70;99.90;;;11.45;100.00;100894.41;5004292;28;20593;-60
2021/05/28 17:17:48;;;;;;;4.60;2.77;;;10.70;99.90;;;11.43;100.00;100887.50;5003817;28;20435;-61
2021/05/28 17:20:15;;;;;;;3.87;2.93;;;10.70;99.90;;;11.46;100.00;100889.91;5003623;28;20230;-61
2021/05/28 17:22:41;;;;;;;2.77;2.33;;;10.70;99.90;;;11.42;100.00;100886.66;5004353;28;20248;-61
2021/05/28 17:25:10;;;;;;;4.73;2.87;;;10.80;99.90;;;11.33;100.00;100879.53;5004777;28;20486;-63
2021/05/28 17:27:40;;;;;;;3.13;2.60;;;10.80;99.90;;;11.35;100.00;100868.66;5004191;28;20229;-61
2021/05/28 17:30:22;;;;;;;3.30;2.10;;;10.80;99.90;;;11.32;100.00;100872.47;4122480;28;10014040;-61
2021/05/28 17:32:49;;;;;;;3.87;2.43;;;10.80;99.90;;;11.34;100.00;100870.50;4986034;28;20267;-61
2021/05/28 17:35:15;;;;;;;3.87;3.00;;;10.80;99.90;;;11.35;100.00;100871.34;4984880;28;20267;-62
2021/05/28 17:37:42;;;;;;;4.20;3.90;;;10.80;99.90;;;11.33;100.00;100863.44;4984173;28;20844;-62
2021/05/28 17:40:12;;;;;;;6.63;5.90;;;10.80;99.90;;;11.31;100.00;100867.25;4984422;28;20975;-61
2021/05/28 17:42:40;;;;;;;3.33;3.03;;;10.80;99.90;;;11.33;100.00;100876.00;4982945;28;20266;-61
2021/05/28 17:45:09;;;;;;;4.10;3.70;;;10.80;99.90;;;11.23;100.00;100873.38;4984134;28;20226;-61
2021/05/28 17:47:36;;;;;;;4.20;3.90;;;10.70;99.90;;;11.25;100.00;100870.56;4984205;28;20999;-63
2021/05/28 17:50:04;;;;;;;4.23;3.93;;;10.70;99.90;;;11.32;100.00;100880.50;4096681;28;10000699;-61
2021/05/28 17:52:31;;;;;;;4.90;4.50;;;10.70;99.90;;;11.25;100.00;100866.00;5002560;28;20337;-62
2021/05/28 17:54:58;;;;;;;3.83;3.53;;;10.70;99.90;;;11.33;100.00;100870.63;5003134;28;20237;-63
2021/05/28 17:57:24;;;;;;;3.90;3.57;;;10.80;99.90;;;11.28;100.00;100864.88;5002012;28;20795;-62
2021/05/28 17:59:54;;;;;;;3.23;2.93;;;10.80;99.90;;;11.39;100.00;100864.66;5002608;28;20792;-61
2021/05/28 18:02:21;;;;;;;2.50;2.23;;;10.80;99.90;;;11.40;100.00;100863.69;5003129;28;20226;-64
2021/05/28 18:04:47;;;;;;;5.00;3.00;;;10.80;99.90;;;11.43;100.00;100863.38;5002160;28;20222;-64
2021/05/28 18:07:14;;;;;;;3.10;2.33;;;10.80;99.90;;;11.32;100.00;100866.28;5001767;28;20885;-66
2021/05/28 18:09:40;;;;;;;2.77;2.50;;;10.80;99.90;;;11.54;100.00;100863.19;5001984;28;20958;-63
2021/05/28 18:12:09;;;;;;;2.93;2.60;;;10.90;99.90;;;11.87;100.00;100870.59;5001758;28;20257;-62
2021/05/28 18:14:36;;;;;;;3.63;3.27;;;10.90;99.90;;;11.74;100.00;100872.81;5000593;28;20736;-62
2021/05/28 18:17:05;;;;;;;3.70;3.40;;;11.00;99.90;;;11.85;100.00;100874.44;4981259;28;20638;-62
2021/05/28 18:19:31;;;;;;;4.60;4.20;;;11.00;99.90;;;11.90;100.00;100876.66;5001401;28;20613;-64
2021/05/28 18:21:58;;;;;;;5.67;4.53;;;11.10;99.90;;;11.77;100.00;100880.56;5001341;28;20509;-63
2021/05/28 18:24:25;;;;;;;5.00;4.60;;;11.20;99.90;;;11.80;100.00;100882.09;5003142;28;20573;-62
2021/05/28 18:26:52;;;;;;;8.07;7.27;;;11.20;99.90;;;11.78;100.00;100882.25;5002190;28;21069;-62
2021/05/28 18:29:19;;;;;;;5.90;5.40;;;11.20;99.90;;;11.64;100.00;100889.91;5002700;28;20229;-64
2021/05/28 18:31:47;;;;;;;5.93;5.43;;;11.20;99.90;;;11.67;100.00;100887.78;4999209;28;21024;-63
2021/05/28 18:34:14;;;;;;;6.33;5.83;;;11.20;99.90;;;11.66;100.00;100886.09;5002251;28;20234;-63
2021/05/28 18:36:42;;;;;;;6.27;5.58;;;11.20;99.90;;;11.66;100.00;100891.47;4172007;28;10001674;-64
2021/05/28 18:39:10;;;;;;;7.17;5.53;;;11.10;99.90;;;11.61;100.00;100880.38;4992211;28;20734;-63
2021/05/28 18:41:39;;;;;;;5.40;4.43;;;11.10;99.90;;;11.62;100.00;100887.38;5001233;28;20254;-63
2021/05/28 18:44:06;;;;;;;4.50;4.10;;;11.10;99.90;;;11.57;100.00;100881.66;5003920;28;20222;-63
2021/05/28 18:46:32;;;;;;;4.50;4.10;;;11.10;99.90;;;11.53;100.00;100883.78;5001091;28;20257;-63
2021/05/28 18:48:59;;;;;;;5.80;4.00;;;11.10;99.90;;;11.49;100.00;100886.91;5001659;28;20807;-62
2021/05/28 18:51:26;;;;;;;4.00;3.70;;;11.00;99.90;;;11.50;100.00;100893.94;4984145;28;21063;-63
2021/05/28 18:53:52;;;;;;;4.13;3.73;;;11.00;99.90;;;11.46;100.00;100892.56;5005234;28;20915;-62
2021/05/28 18:56:19;;;;;;;3.90;3.30;;;11.00;99.90;;;11.34;100.00;100891.94;5002788;28;20557;-63
2021/05/28 18:58:48;;;;;;;3.53;3.23;;;10.90;99.90;;;11.35;100.00;100895.44;5012416;28;20218;-63
2021/05/28 19:01:17;;;;;;;5.13;3.90;;;10.80;99.90;;;11.31;100.00;100900.25;5002879;28;20277;-64
2021/05/28 19:03:44;;;;;;;4.20;3.80;;;10.80;99.90;;;11.24;100.00;100901.00;5003351;28;20581;-62
2021/05/28 19:06:12;;;;;;;4.83;4.43;;;10.70;99.90;;;11.25;100.00;100905.38;5003303;28;20522;-62
2021/05/28 19:08:42;;;;;;;4.40;4.10;;;10.60;99.90;;;11.22;100.00;100905.66;5003553;28;20215;-61
2021/05/28 19:11:12;;;;;;;4.97;4.50;;;10.60;99.90;;;11.09;100.00;100901.47;5004451;28;20589;-61
2021/05/28 19:13:45;;;;;;;5.30;4.13;;;10.50;99.90;;;11.05;100.00;100905.44;5003730;28;20741;-61
2021/05/28 19:16:24;;;;;;;7.80;4.70;;;10.50;99.90;;;10.99;100.00;100907.88;5004550;28;20228;-62
2021/05/28 19:18:51;;;;;;;5.40;5.00;;;10.40;99.90;;;11.04;100.00;100918.97;5007145;28;20769;-61
2021/05/28 19:21:17;;;;;;;6.87;5.43;;;10.30;99.90;;;10.91;100.00;100921.97;5003997;28;20642;-63
2021/05/28 19:23:47;;;;;;;5.77;5.23;;;10.30;99.90;;;10.88;100.00;100921.41;5002760;28;20239;-62
2021/05/28 19:26:13;;;;;;;4.87;4.40;;;10.20;99.90;;;10.83;100.00;100923.69;5003812;28;20556;-62
2021/05/28 19:28:41;;;;;;;5.30;4.80;;;10.10;99.90;;;10.79;100.00;100925.78;5017997;28;20547;-62
2021/05/28 19:31:10;;;;;;;3.87;3.57;;;10.10;99.90;;;10.82;100.00;100925.50;5002013;28;20308;-62
2021/05/28 19:33:38;;;;;;;4.63;4.23;;;10.00;99.90;;;10.71;100.00;100928.34;5003203;28;20392;-62
2021/05/28 19:36:07;;;;;;;4.40;4.00;;;10.00;99.90;;;10.65;100.00;100936.94;5000365;28;20702;-62
2021/05/28 20:44:01;;;;;;;6.13;5.63;;;8.60;99.90;;;9.43;100.00;100990.75;4725392;29;20679;-62
2021/05/28 21:39:16;;;;;;;7.87;7.17;;;8.10;99.90;;;8.92;100.00;101018.25;4799181;29;20541;-62
2021/05/28 22:02:39;;;;;;;8.60;7.80;;;8.00;99.90;;;8.58;100.00;101036.25;4799918;28;21128;-62
2021/05/28 22:18:58;;;;;;;6.87;6.17;;;7.70;99.90;;;8.44;100.00;101041.88;4740285;29;20591;-63
2021/05/28 22:57:39;;;;;;;7.40;6.67;;;7.20;99.90;;;7.84;100.00;101034.34;4849014;29;20235;-62
2021/05/28 23:04:20;;;;;;;7.97;7.17;;;7.10;99.90;;;7.56;100.00;101039.19;4842040;29;20570;-61
2021/05/28 23:35:12;;;;;;;6.90;6.20;;;6.60;99.90;;;7.29;100.00;101027.19;4684834;30;20886;-62
